CheckWX is a tool to help pilots better visualize weather data.  It is not intended as a substitute for an official pre-flight weather briefing.

20:29:54 UTC

OPLA TAF
Alama Iqbal International Airport
Lahore, Pakistan
TAF OPLA 221545Z 2218/2324 31004KT 4000 FU FEW100 TN16/2301Z

Mar-22@
18:00 UTC

Mar-22 @ 18:00 UTC

Mar-24@
00:00 UTC

Mar-24 @ 00:00 UTC

TAF OPLA 221545Z 2218/2324 31004KT 4000 FU FEW100 TN16/2301Z
Wind
  • 310° at 4 KTS
Conditions
Smoke
Cloud Levels
  • Few at 10,000' AGL